Time;durP1;ratioP1;P1;durP2;ratioP2;P2;SDS_P1;SDS_P2;PMS_P1;PMS_P2;Temp;Humidity;BMP_temperature;BMP_pressure;BME280_temperature;BME280_humidity;BME280_pressure;Samples;Min_cycle;Max_cycle;Signal;HPM_P1;HPM_P2
2021/04/19 00:00:10;;;;;;;11.73;5.82;;;7.30;83.30;;;;;;4955847;29;20054;-85
2021/04/19 00:02:35;;;;;;;9.75;5.40;;;7.30;83.40;;;;;;4954794;29;20035;-85
2021/04/19 00:05:01;;;;;;;12.23;6.43;;;7.20;83.60;;;;;;4951399;29;20037;-85
2021/04/19 00:07:26;;;;;;;11.15;5.60;;;7.20;83.80;;;;;;4956169;29;20030;-85
2021/04/19 00:09:52;;;;;;;12.57;5.57;;;7.20;84.00;;;;;;4956526;29;20604;-85
2021/04/19 00:12:18;;;;;;;10.23;5.60;;;7.10;84.00;;;;;;4954673;29;20043;-85
2021/04/19 00:14:43;;;;;;;10.73;5.93;;;7.10;84.20;;;;;;4953881;29;20062;-85
2021/04/19 00:17:09;;;;;;;11.10;7.00;;;7.10;84.30;;;;;;4956511;29;20110;-85
2021/04/19 00:19:34;;;;;;;12.75;5.80;;;7.10;84.40;;;;;;4939814;29;20035;-85
2021/04/19 00:22:00;;;;;;;10.63;6.13;;;7.00;84.50;;;;;;4954518;29;20031;-85
2021/04/19 00:24:25;;;;;;;11.35;6.95;;;7.00;84.60;;;;;;4955630;29;20042;-85
2021/04/19 00:26:51;;;;;;;11.43;5.72;;;7.00;84.70;;;;;;4955730;29;20034;-84
2021/04/19 00:29:16;;;;;;;12.40;6.28;;;7.00;84.90;;;;;;4955178;29;20045;-85
2021/04/19 00:31:42;;;;;;;12.93;6.35;;;6.90;85.00;;;;;;4952637;28;20034;-85
2021/04/19 00:34:07;;;;;;;12.68;5.50;;;6.90;85.20;;;;;;4955038;29;20066;-85
2021/04/19 00:36:33;;;;;;;11.98;6.30;;;6.80;85.40;;;;;;4955434;29;20023;-85
2021/04/19 00:38:58;;;;;;;11.13;5.45;;;6.80;85.60;;;;;;4955097;29;20514;-85
2021/04/19 00:41:24;;;;;;;11.68;5.78;;;6.70;85.70;;;;;;4953606;29;20035;-85
2021/04/19 00:43:50;;;;;;;11.90;6.13;;;6.70;85.80;;;;;;4954312;29;20031;-85
2021/04/19 00:46:16;;;;;;;11.63;5.75;;;6.70;85.90;;;;;;4954119;29;20171;-85
2021/04/19 00:48:42;;;;;;;10.57;5.97;;;6.60;86.10;;;;;;4951924;29;20411;-85
2021/04/19 00:51:08;;;;;;;13.20;6.20;;;6.60;86.30;;;;;;4954441;29;20031;-85
2021/04/19 00:53:35;;;;;;;9.45;6.22;;;6.60;86.30;;;;;;4954600;29;20031;-85
2021/04/19 00:56:01;;;;;;;9.57;5.88;;;6.60;86.50;;;;;;4954479;29;20027;-85
2021/04/19 00:58:34;;;;;;;12.60;5.85;;;6.50;86.70;;;;;;4953723;29;20041;-85
2021/04/19 01:01:00;;;;;;;11.40;6.07;;;6.40;86.80;;;;;;4952612;28;20042;-85
2021/04/19 01:03:26;;;;;;;10.38;6.07;;;6.40;86.90;;;;;;4954770;29;20027;-85
2021/04/19 01:05:52;;;;;;;10.77;5.72;;;6.40;87.10;;;;;;4954190;29;20027;-85
2021/04/19 01:08:17;;;;;;;13.85;6.35;;;6.30;87.20;;;;;;4955222;29;20038;-84
2021/04/19 01:10:44;;;;;;;12.07;6.15;;;6.30;87.30;;;;;;4954313;29;20027;-85
2021/04/19 01:13:10;;;;;;;14.52;5.88;;;6.30;87.40;;;;;;4952433;29;20058;-85
2021/04/19 01:15:35;;;;;;;13.52;7.75;;;6.30;87.50;;;;;;4954299;29;20058;-85
2021/04/19 01:18:01;;;;;;;12.43;5.93;;;6.20;87.50;;;;;;4948690;29;20031;-85
2021/04/19 01:20:30;;;;;;;13.73;6.43;;;6.20;87.90;;;;;;4954104;29;20114;-85
2021/04/19 01:22:56;;;;;;;11.93;6.75;;;6.10;88.00;;;;;;4954366;29;20034;-85
2021/04/19 01:25:24;;;;;;;12.70;6.93;;;6.10;88.10;;;;;;4954209;29;20035;-85
2021/04/19 01:27:51;;;;;;;12.75;6.20;;;6.00;88.20;;;;;;4953832;29;20125;-85
2021/04/19 01:30:19;;;;;;;13.80;6.32;;;6.00;88.30;;;;;;4953801;29;20034;-85
2021/04/19 01:32:46;;;;;;;16.52;6.72;;;6.00;88.50;;;;;;4953940;29;20035;-86
2021/04/19 01:35:13;;;;;;;15.10;6.95;;;5.90;88.60;;;;;;4953166;28;20035;-85
2021/04/19 01:37:39;;;;;;;10.13;6.47;;;5.90;88.80;;;;;;4954908;29;20027;-85
2021/04/19 01:40:07;;;;;;;12.98;6.75;;;5.80;89.50;;;;;;4951131;29;20103;-86
2021/04/19 01:42:32;;;;;;;13.43;6.50;;;5.80;88.90;;;;;;4953747;29;20033;-85
2021/04/19 01:44:58;;;;;;;13.48;7.85;;;5.80;89.20;;;;;;4949707;28;20027;-85
2021/04/19 01:47:25;;;;;;;13.00;7.55;;;5.70;89.30;;;;;;4953006;29;20057;-85
2021/04/19 01:49:51;;;;;;;12.90;6.47;;;5.70;89.40;;;;;;4953116;29;20039;-85
2021/04/19 01:52:16;;;;;;;13.20;6.53;;;5.70;89.50;;;;;;4951857;28;20388;-85
2021/04/19 01:54:42;;;;;;;13.50;7.68;;;5.60;89.70;;;;;;4953727;29;20027;-85
2021/04/19 01:57:08;;;;;;;12.98;7.43;;;5.60;89.80;;;;;;4943388;29;20027;-86
2021/04/19 01:59:34;;;;;;;15.98;6.85;;;5.60;89.90;;;;;;4946332;29;20181;-85
2021/04/19 02:02:10;;;;;;;12.35;7.50;;;5.60;90.00;;;;;;4953994;28;20471;-85
2021/04/19 02:04:51;;;;;;;16.13;7.70;;;5.60;90.10;;;;;;4953982;28;20050;-84
2021/04/19 02:07:36;;;;;;;13.85;7.70;;;5.60;90.10;;;;;;4950884;29;20159;-84
2021/04/19 02:10:14;;;;;;;14.18;7.78;;;5.50;90.10;;;;;;4943472;29;20053;-84
2021/04/19 02:12:45;;;;;;;15.07;8.10;;;5.50;90.50;;;;;;4952311;29;20031;-84
2021/04/19 02:15:24;;;;;;;13.68;7.68;;;5.50;90.30;;;;;;4954752;28;20378;-85
2021/04/19 02:17:56;;;;;;;13.57;7.60;;;5.50;90.30;;;;;;4953319;29;20127;-85
2021/04/19 02:20:43;;;;;;;15.73;7.97;;;5.50;90.30;;;;;;4954338;29;20383;-84
2021/04/19 02:23:31;;;;;;;20.00;8.27;;;5.50;90.40;;;;;;4954363;28;20135;-84
2021/04/19 02:26:05;;;;;;;14.93;7.43;;;5.50;90.40;;;;;;4953187;29;20058;-85
2021/04/19 02:28:33;;;;;;;17.90;7.47;;;5.50;90.50;;;;;;4953052;29;20118;-85
2021/04/19 02:31:07;;;;;;;21.00;10.35;;;5.50;90.50;;;;;;4948818;28;20570;-85
2021/04/19 02:33:37;;;;;;;15.35;8.70;;;5.50;90.60;;;;;;4955385;28;20035;-84
2021/04/19 02:36:05;;;;;;;21.77;9.27;;;5.50;90.60;;;;;;4949505;29;20046;-85
2021/04/19 02:38:32;;;;;;;15.90;8.52;;;5.40;90.70;;;;;;4953868;29;20035;-84
2021/04/19 02:41:02;;;;;;;19.58;9.23;;;5.40;90.80;;;;;;4952735;28;20391;-84
2021/04/19 02:43:32;;;;;;;19.38;9.45;;;5.40;90.90;;;;;;4945179;29;20038;-84
2021/04/19 02:45:59;;;;;;;19.35;9.93;;;5.40;91.00;;;;;;4949573;29;20542;-85
2021/04/19 02:48:26;;;;;;;21.25;9.63;;;5.30;91.00;;;;;;4951598;28;20043;-84
2021/04/19 02:50:53;;;;;;;18.73;8.40;;;5.30;91.00;;;;;;4953246;29;20035;-84
2021/04/19 02:53:20;;;;;;;15.82;8.82;;;5.30;91.10;;;;;;4954306;28;20041;-84
2021/04/19 02:55:47;;;;;;;16.40;8.90;;;5.30;91.20;;;;;;4949374;28;20027;-85
2021/04/19 02:58:14;;;;;;;18.40;9.80;;;5.40;91.30;;;;;;4949981;29;20031;-85
2021/04/19 03:00:47;;;;;;;16.13;8.80;;;5.40;91.30;;;;;;4955985;29;20031;-85
2021/04/19 03:03:20;;;;;;;18.63;9.65;;;5.40;91.40;;;;;;4955417;29;20031;-84
2021/04/19 03:05:47;;;;;;;17.98;10.18;;;5.30;91.40;;;;;;4958292;28;20535;-85
2021/04/19 03:08:19;;;;;;;19.60;11.07;;;5.30;91.40;;;;;;4957841;28;20079;-84
2021/04/19 03:10:52;;;;;;;16.95;9.98;;;5.30;91.50;;;;;;4955674;29;20126;-85
2021/04/19 03:13:20;;;;;;;18.13;9.35;;;5.20;91.50;;;;;;4955670;28;20526;-85
2021/04/19 03:15:51;;;;;;;17.40;9.93;;;5.20;91.50;;;;;;4971962;28;20079;-84
2021/04/19 03:18:17;;;;;;;20.60;11.07;;;5.20;91.60;;;;;;4948694;29;20031;-84
2021/04/19 03:21:04;;;;;;;20.92;11.07;;;5.20;91.70;;;;;;4946399;29;20051;-84
2021/04/19 03:23:32;;;;;;;21.23;10.95;;;5.10;91.70;;;;;;4956683;29;20498;-85
2021/04/19 03:25:58;;;;;;;16.05;9.60;;;5.10;91.80;;;;;;4955557;29;20037;-84
2021/04/19 03:28:25;;;;;;;20.80;10.65;;;5.10;91.80;;;;;;4955757;29;20035;-84
2021/04/19 03:30:51;;;;;;;20.30;10.95;;;5.10;91.90;;;;;;4954469;29;20070;-84
2021/04/19 03:33:19;;;;;;;18.13;10.18;;;5.10;92.00;;;;;;4957468;29;20063;-84
2021/04/19 03:35:46;;;;;;;19.50;11.85;;;5.10;92.00;;;;;;4957192;29;20079;-84
2021/04/19 03:38:15;;;;;;;21.23;10.57;;;5.20;92.00;;;;;;4957599;29;20027;-84
2021/04/19 03:40:42;;;;;;;19.33;10.88;;;5.20;92.10;;;;;;4948684;29;20039;-84
2021/04/19 03:43:10;;;;;;;20.15;10.63;;;5.20;92.00;;;;;;4954106;29;20086;-84
2021/04/19 03:45:38;;;;;;;28.88;11.57;;;5.20;92.10;;;;;;4952541;29;20399;-84
2021/04/19 03:48:15;;;;;;;25.55;11.35;;;5.20;92.10;;;;;;4948020;28;20032;-84
2021/04/19 03:50:48;;;;;;;20.85;10.43;;;5.20;92.10;;;;;;4951307;28;20391;-85
2021/04/19 03:53:16;;;;;;;21.20;11.15;;;5.20;92.20;;;;;;4942491;29;20432;-85
2021/04/19 03:55:44;;;;;;;22.10;11.23;;;5.20;92.20;;;;;;4952691;29;20031;-84
2021/04/19 03:58:12;;;;;;;22.15;10.75;;;5.10;92.10;;;;;;4942775;29;20095;-84
2021/04/19 04:00:41;;;;;;;25.70;12.43;;;5.10;92.20;;;;;;4955493;28;20030;-84
2021/04/19 04:03:08;;;;;;;19.98;11.77;;;5.10;92.30;;;;;;4956193;28;20027;-84
2021/04/19 04:05:34;;;;;;;24.80;12.98;;;5.10;92.40;;;;;;4950829;29;20030;-84
2021/04/19 04:08:00;;;;;;;26.08;13.48;;;5.00;92.40;;;;;;4953019;28;20033;-85
2021/04/19 04:10:26;;;;;;;24.77;12.55;;;5.00;92.50;;;;;;4950295;29;20036;-85
2021/04/19 04:12:52;;;;;;;23.48;12.48;;;5.00;92.60;;;;;;4939719;29;20024;-84
2021/04/19 04:15:19;;;;;;;25.50;13.65;;;5.10;92.70;;;;;;4945284;29;20031;-84
2021/04/19 04:17:45;;;;;;;23.60;13.88;;;5.10;92.80;;;;;;4953994;29;20114;-85
2021/04/19 04:20:12;;;;;;;24.40;14.27;;;5.20;92.80;;;;;;4949080;29;20074;-84
2021/04/19 04:22:37;;;;;;;26.27;14.98;;;5.20;92.80;;;;;;4954113;29;20020;-85
2021/04/19 04:25:04;;;;;;;26.80;14.32;;;5.30;92.80;;;;;;4952577;29;20111;-85
2021/04/19 04:27:30;;;;;;;25.70;14.90;;;5.30;92.70;;;;;;4951047;29;20459;-84
2021/04/19 04:29:56;;;;;;;30.95;15.73;;;5.30;92.70;;;;;;4948311;29;20118;-84
2021/04/19 04:32:21;;;;;;;27.13;15.60;;;5.30;92.70;;;;;;4943633;28;20035;-85
2021/04/19 04:34:47;;;;;;;28.25;15.23;;;5.40;92.80;;;;;;4935738;28;20035;-85
2021/04/19 04:37:13;;;;;;;25.70;14.98;;;5.40;92.80;;;;;;4942321;28;20050;-85
2021/04/19 04:39:38;;;;;;;26.55;14.65;;;5.40;92.80;;;;;;4939989;28;20126;-85
2021/04/19 04:42:05;;;;;;;29.17;14.20;;;5.40;92.80;;;;;;4942953;28;20039;-85
2021/04/19 04:44:35;;;;;;;29.55;15.68;;;5.40;92.80;;;;;;4943809;28;20027;-84
2021/04/19 04:47:10;;;;;;;26.80;16.27;;;5.40;92.90;;;;;;4938233;28;20042;-85
2021/04/19 04:49:58;;;;;;;30.83;14.93;;;5.40;92.90;;;;;;4940394;28;20086;-85
2021/04/19 04:52:28;;;;;;;29.90;15.63;;;5.40;92.90;;;;;;4934477;28;20032;-85
2021/04/19 04:54:54;;;;;;;26.92;15.20;;;5.30;93.00;;;;;;4942868;28;20035;-84
2021/04/19 04:57:21;;;;;;;33.53;17.33;;;5.30;93.10;;;;;;4939553;28;20035;-85
2021/04/19 04:59:50;;;;;;;31.30;15.95;;;5.30;93.10;;;;;;4940062;28;20110;-85
2021/04/19 05:02:20;;;;;;;26.70;16.42;;;5.30;93.10;;;;;;4944643;28;20039;-85
2021/04/19 05:04:47;;;;;;;31.23;16.23;;;5.40;93.20;;;;;;4947560;28;20026;-84
2021/04/19 05:07:13;;;;;;;30.75;17.75;;;5.40;93.20;;;;;;4953287;29;20119;-84
2021/04/19 05:09:39;;;;;;;30.52;16.33;;;5.40;93.30;;;;;;4950508;29;20118;-85
2021/04/19 05:12:05;;;;;;;31.15;17.77;;;5.40;93.30;;;;;;4944673;29;20064;-85
2021/04/19 05:14:32;;;;;;;30.75;16.88;;;5.50;93.30;;;;;;4939152;28;20063;-85
2021/04/19 05:16:57;;;;;;;27.58;16.35;;;5.50;93.30;;;;;;4936905;29;20089;-85
2021/04/19 05:19:23;;;;;;;33.95;17.42;;;5.60;93.30;;;;;;4936919;28;20039;-84
2021/04/19 05:21:49;;;;;;;47.25;20.10;;;5.60;93.30;;;;;;4940808;29;20499;-86
2021/04/19 05:24:14;;;;;;;30.55;18.42;;;5.70;93.30;;;;;;4940625;29;20163;-85
2021/04/19 05:26:40;;;;;;;34.03;16.92;;;5.70;93.30;;;;;;4942967;29;20030;-85
2021/04/19 05:29:05;;;;;;;36.13;17.67;;;5.70;93.30;;;;;;4940735;29;20055;-85
2021/04/19 05:31:31;;;;;;;28.50;17.17;;;5.80;93.20;;;;;;4939492;29;20023;-85
2021/04/19 05:33:57;;;;;;;32.53;18.30;;;5.80;93.30;;;;;;4945001;29;20058;-85
2021/04/19 05:36:25;;;;;;;32.40;17.52;;;5.80;93.30;;;;;;4943293;29;20074;-86
2021/04/19 05:38:52;;;;;;;35.47;18.48;;;5.90;93.20;;;;;;4938026;29;20109;-86
2021/04/19 05:41:19;;;;;;;36.03;19.48;;;5.90;93.20;;;;;;4937776;28;20396;-85
2021/04/19 05:43:46;;;;;;;37.28;17.67;;;6.00;93.20;;;;;;4956031;28;20028;-86
2021/04/19 05:46:13;;;;;;;31.65;19.08;;;6.10;93.20;;;;;;4941485;28;20035;-85
2021/04/19 05:48:39;;;;;;;31.90;18.95;;;6.10;93.50;;;;;;4942158;28;20115;-86
2021/04/19 05:51:19;;;;;;;37.10;18.60;;;6.10;93.20;;;;;;4960996;28;20031;-86
2021/04/19 05:53:48;;;;;;;32.00;19.55;;;6.10;93.20;;;;;;4937548;29;20054;-87
2021/04/19 05:56:26;;;;;;;36.15;20.45;;;6.10;93.20;;;;;;4971261;28;20040;-86
2021/04/19 05:59:02;;;;;;;32.67;20.80;;;6.20;93.30;;;;;;4948488;28;20058;-86
2021/04/19 06:01:30;;;;;;;35.83;20.55;;;6.30;93.30;;;;;;4944057;29;20027;-85
2021/04/19 06:04:05;;;;;;;34.28;20.23;;;6.30;93.30;;;;;;4955838;29;20042;-85
2021/04/19 06:06:36;;;;;;;36.72;21.27;;;6.30;93.30;;;;;;4953076;29;20032;-86
2021/04/19 06:09:07;;;;;;;36.42;19.75;;;6.40;93.30;;;;;;4950890;29;20130;-85
2021/04/19 06:11:49;;;;;;;31.25;17.67;;;6.40;93.30;;;;;;4949179;28;20020;-86
2021/04/19 06:14:21;;;;;;;35.40;20.95;;;6.40;93.30;;;;;;4952678;29;20027;-85
2021/04/19 06:16:48;;;;;;;31.73;18.88;;;6.40;93.20;;;;;;4954735;29;20402;-85
2021/04/19 06:19:15;;;;;;;36.75;19.92;;;6.40;93.20;;;;;;4948507;29;20056;-85
2021/04/19 06:21:42;;;;;;;32.40;20.13;;;6.40;93.20;;;;;;4952870;29;20019;-86
2021/04/19 06:24:09;;;;;;;35.53;20.05;;;6.30;93.30;;;;;;4954002;28;20475;-87
2021/04/19 06:26:35;;;;;;;31.13;19.30;;;6.30;93.30;;;;;;4949646;28;20035;-87
2021/04/19 06:29:02;;;;;;;31.35;20.45;;;6.30;93.40;;;;;;4963522;28;20042;-86
2021/04/19 06:31:28;;;;;;;31.27;20.35;;;6.30;93.40;;;;;;4945167;28;20024;-86
2021/04/19 06:34:06;;;;;;;33.83;21.02;;;6.30;93.50;;;;;;4948862;29;20458;-85
2021/04/19 06:36:38;;;;;;;34.97;21.45;;;6.40;93.50;;;;;;4942843;29;20047;-85
2021/04/19 06:39:05;;;;;;;36.67;23.05;;;6.40;93.50;;;;;;4964039;28;20079;-84
2021/04/19 06:41:31;;;;;;;35.88;20.45;;;6.40;93.50;;;;;;4945976;28;20111;-84
2021/04/19 06:43:58;;;;;;;33.78;21.20;;;6.40;93.50;;;;;;4945875;29;20042;-84
2021/04/19 06:46:30;;;;;;;38.78;21.83;;;6.40;93.60;;;;;;4952847;28;20035;-84
2021/04/19 06:48:57;;;;;;;39.10;22.15;;;6.30;93.60;;;;;;4940595;28;20046;-85
2021/04/19 06:51:23;;;;;;;39.78;21.83;;;6.30;93.60;;;;;;4942736;29;20035;-84
2021/04/19 06:53:53;;;;;;;39.25;23.90;;;6.30;93.70;;;;;;4951392;29;20028;-84
2021/04/19 06:56:23;;;;;;;39.67;24.30;;;6.30;93.70;;;;;;4949573;29;20028;-84
2021/04/19 06:58:53;;;;;;;38.97;23.85;;;6.40;93.80;;;;;;4954585;28;20054;-84
2021/04/19 07:01:20;;;;;;;38.08;21.10;;;6.40;93.80;;;;;;4943383;28;20610;-84
2021/04/19 07:03:49;;;;;;;41.05;22.63;;;6.40;93.90;;;;;;4949284;28;20019;-84
2021/04/19 07:06:15;;;;;;;33.10;20.48;;;6.50;93.90;;;;;;4938643;29;20023;-84
2021/04/19 07:08:46;;;;;;;34.03;22.35;;;6.50;93.90;;;;;;4953144;29;20035;-84
2021/04/19 07:11:13;;;;;;;45.20;25.05;;;6.50;94.00;;;;;;4952651;29;20103;-83
2021/04/19 07:13:39;;;;;;;37.83;22.70;;;6.60;94.00;;;;;;4942339;28;20032;-84
2021/04/19 07:16:05;;;;;;;40.03;22.38;;;6.70;94.00;;;;;;4944634;28;20065;-84
2021/04/19 07:18:33;;;;;;;38.65;22.95;;;6.70;93.90;;;;;;4953852;28;20042;-83
2021/04/19 07:20:59;;;;;;;39.15;24.15;;;6.60;94.00;;;;;;4950503;29;20046;-84
2021/04/19 07:23:24;;;;;;;44.72;24.80;;;6.60;94.10;;;;;;4940051;28;20031;-84
2021/04/19 07:25:50;;;;;;;45.03;26.17;;;6.70;94.20;;;;;;4949316;28;20168;-84
2021/04/19 07:28:16;;;;;;;48.38;26.95;;;6.70;94.30;;;;;;4948202;29;20066;-84
2021/04/19 07:30:42;;;;;;;46.65;26.80;;;6.70;94.30;;;;;;4943804;28;20098;-84
2021/04/19 07:33:24;;;;;;;40.97;24.67;;;6.70;94.30;;;;;;4955006;28;20069;-85
2021/04/19 07:35:49;;;;;;;43.35;24.77;;;6.80;94.40;;;;;;4954551;29;20024;-84
2021/04/19 07:38:28;;;;;;;44.75;26.17;;;6.70;94.40;;;;;;4953492;28;20043;-84
2021/04/19 07:40:53;;;;;;;41.42;26.55;;;6.70;94.40;;;;;;4953141;28;20050;-84
2021/04/19 07:43:24;;;;;;;37.75;24.05;;;6.70;94.50;;;;;;4958365;28;20038;-84
2021/04/19 07:46:05;;;;;;;48.78;28.95;;;6.80;94.50;;;;;;4957261;29;20027;-84
2021/04/19 07:48:46;;;;;;;56.72;31.42;;;6.80;94.60;;;;;;4956294;29;20039;-84
2021/04/19 07:51:30;;;;;;;46.53;28.60;;;6.90;94.80;;;;;;4957472;29;20498;-84
2021/04/19 07:54:11;;;;;;;48.42;28.58;;;7.10;95.00;;;;;;4966908;28;20054;-84
2021/04/19 07:56:41;;;;;;;44.80;27.30;;;7.30;95.00;;;;;;4973637;28;20020;-84
2021/04/19 07:59:23;;;;;;;43.85;26.90;;;7.60;95.00;;;;;;4957861;29;20074;-84
2021/04/19 08:02:19;;;;;;;40.45;26.52;;;7.90;94.60;;;;;;4956643;29;20038;-84
2021/04/19 08:04:52;;;;;;;47.17;28.92;;;8.00;94.50;;;;;;4954015;28;20043;-84
2021/04/19 08:07:18;;;;;;;;;;;8.10;94.50;;;;;;4969548;28;20039;-84
2021/04/19 08:09:52;;;;;;;34.92;23.52;;;8.30;94.40;;;;;;4956422;29;20001;-84
2021/04/19 08:12:18;;;;;;;41.33;26.50;;;8.40;94.10;;;;;;4957668;29;20031;-84
2021/04/19 08:14:54;;;;;;;42.83;26.65;;;8.40;94.00;;;;;;4957278;29;20027;-83
2021/04/19 08:17:19;;;;;;;39.80;26.13;;;8.50;94.10;;;;;;4963283;28;20495;-84
2021/04/19 08:19:45;;;;;;;45.85;28.27;;;8.60;94.10;;;;;;4955195;28;20075;-84
2021/04/19 08:22:24;;;;;;;44.22;26.88;;;8.70;94.10;;;;;;4956522;29;20035;-84
2021/04/19 08:24:49;;;;;;;44.65;28.35;;;8.80;93.90;;;;;;4956579;28;20384;-84
2021/04/19 08:27:18;;;;;;;48.83;30.15;;;8.90;93.90;;;;;;4956265;29;20034;-84
2021/04/19 08:29:47;;;;;;;39.63;26.63;;;9.10;94.10;;;;;;4946886;29;20126;-84
2021/04/19 08:32:22;;;;;;;44.60;28.98;;;9.30;94.10;;;;;;4939903;29;20024;-84
2021/04/19 08:34:49;;;;;;;45.55;28.67;;;9.60;93.90;;;;;;4956098;29;20034;-84
2021/04/19 08:37:20;;;;;;;36.65;25.13;;;9.60;93.50;;;;;;4957371;29;20031;-84
2021/04/19 08:39:45;;;;;;;41.42;26.48;;;9.70;93.30;;;;;;4955105;29;20067;-84
2021/04/19 08:42:13;;;;;;;37.55;23.80;;;9.70;93.30;;;;;;4956964;28;20070;-84
2021/04/19 08:44:40;;;;;;;34.58;22.42;;;9.70;93.20;;;;;;4957461;28;20034;-84
2021/04/19 08:47:07;;;;;;;35.85;23.88;;;9.80;93.10;;;;;;4955928;28;20504;-84
2021/04/19 08:49:33;;;;;;;34.22;22.45;;;9.80;93.00;;;;;;4950095;28;20514;-84
2021/04/19 08:51:59;;;;;;;38.72;25.42;;;9.90;92.90;;;;;;4957127;29;20462;-84
2021/04/19 08:54:25;;;;;;;34.22;24.10;;;10.10;92.90;;;;;;4955206;28;20023;-83
2021/04/19 08:56:52;;;;;;;34.47;24.48;;;10.20;92.90;;;;;;4956090;29;20058;-83
2021/04/19 08:59:19;;;;;;;33.40;24.08;;;10.50;92.80;;;;;;4955489;29;20023;-83
2021/04/19 09:01:46;;;;;;;28.65;20.38;;;10.60;92.80;;;;;;4954478;29;20078;-84
2021/04/19 09:04:12;;;;;;;29.83;20.92;;;10.80;92.40;;;;;;4957193;28;20078;-83
2021/04/19 09:06:48;;;;;;;31.52;21.70;;;10.90;91.90;;;;;;4955515;28;20031;-84
2021/04/19 09:09:34;;;;;;;37.28;20.73;;;10.80;91.60;;;;;;4940227;29;20459;-83
2021/04/19 09:12:21;;;;;;;24.65;18.90;;;10.70;91.80;;;;;;4957824;29;20035;-84
2021/04/19 09:14:47;;;;;;;28.67;20.52;;;10.70;91.80;;;;;;4956948;29;20033;-83
2021/04/19 09:17:27;;;;;;;28.77;21.08;;;10.60;91.90;;;;;;4955257;28;20023;-84
2021/04/19 09:19:58;;;;;;;34.00;24.17;;;10.60;91.80;;;;;;4948769;28;20035;-84
2021/04/19 09:22:24;;;;;;;25.65;18.63;;;10.70;92.20;;;;;;4955989;29;20039;-84
2021/04/19 09:25:06;;;;;;;32.83;23.30;;;10.90;92.20;;;;;;4956507;29;20030;-83
2021/04/19 09:27:57;;;;;;;32.37;23.13;;;11.20;92.20;;;;;;4955640;29;20081;-83
2021/04/19 09:30:32;;;;;;;27.60;20.52;;;11.40;92.10;;;;;;4957268;28;20484;-83
2021/04/19 09:33:04;;;;;;;31.88;22.13;;;11.60;91.30;;;;;;4955853;29;20035;-84
2021/04/19 09:35:39;;;;;;;28.60;21.03;;;11.60;91.10;;;;;;4957080;28;20023;-84
2021/04/19 09:38:05;;;;;;;23.35;16.98;;;11.70;91.20;;;;;;4955168;29;20389;-83
2021/04/19 09:40:44;;;;;;;24.77;17.60;;;11.60;90.40;;;;;;4955770;29;20043;-83
2021/04/19 09:43:09;;;;;;;30.95;20.35;;;11.40;90.30;;;;;;4956212;29;20027;-83
2021/04/19 09:45:41;;;;;;;20.40;16.23;;;11.40;91.20;;;;;;4956733;29;20510;-84
2021/04/19 09:48:27;;;;;;;21.25;17.20;;;11.60;90.90;;;;;;4956759;29;20034;-83
2021/04/19 09:50:59;;;;;;;21.45;16.05;;;11.70;91.40;;;;;;4955777;29;20058;-84
2021/04/19 09:53:25;;;;;;;20.67;14.45;;;11.90;90.70;;;;;;4970523;28;20379;-84
2021/04/19 09:55:51;;;;;;;17.55;13.77;;;11.80;90.30;;;;;;4955919;29;20106;-84
2021/04/19 09:58:18;;;;;;;19.20;15.30;;;11.90;90.30;;;;;;4953094;29;20082;-84
2021/04/19 10:00:44;;;;;;;18.73;14.50;;;12.10;90.40;;;;;;4943173;28;20065;-84
2021/04/19 10:03:10;;;;;;;16.73;13.10;;;12.30;90.10;;;;;;4948901;28;20055;-84
2021/04/19 10:05:42;;;;;;;18.08;13.93;;;12.40;90.10;;;;;;4954673;28;20015;-84
2021/04/19 10:08:10;;;;;;;22.20;15.73;;;12.40;89.30;;;;;;4953400;29;20031;-84
2021/04/19 10:10:37;;;;;;;18.95;13.77;;;12.50;89.80;;;;;;4937589;29;20190;-84
2021/04/19 10:13:02;;;;;;;19.77;14.00;;;12.80;89.10;;;;;;4938005;28;20032;-84
2021/04/19 10:15:28;;;;;;;20.38;14.60;;;12.90;88.10;;;;;;4945100;29;20547;-84
2021/04/19 10:17:53;;;;;;;19.63;15.02;;;13.00;87.60;;;;;;4939588;28;20071;-84
2021/04/19 10:20:25;;;;;;;19.25;14.82;;;13.00;87.50;;;;;;4950375;28;20047;-84
2021/04/19 10:23:12;;;;;;;17.13;13.95;;;12.90;87.20;;;;;;4957114;28;20464;-84
2021/04/19 10:25:52;;;;;;;19.95;14.88;;;12.80;85.90;;;;;;4942280;29;20062;-84
2021/04/19 10:28:33;;;;;;;17.77;13.60;;;12.80;86.60;;;;;;4946677;29;20381;-84
2021/04/19 10:31:14;;;;;;;17.30;13.38;;;13.00;86.90;;;;;;4948628;28;20065;-84
2021/04/19 10:33:42;;;;;;;15.40;12.18;;;13.10;85.70;;;;;;4952922;29;20031;-84
2021/04/19 10:36:15;;;;;;;19.67;14.15;;;13.20;85.70;;;;;;4944972;28;20042;-84
2021/04/19 10:38:41;;;;;;;16.35;12.60;;;13.10;85.50;;;;;;4935777;29;20099;-84
2021/04/19 10:41:07;;;;;;;17.35;13.85;;;13.10;85.20;;;;;;4947363;28;20035;-85
2021/04/19 10:43:33;;;;;;;15.07;12.43;;;13.10;84.50;;;;;;4942468;29;20134;-84
2021/04/19 10:45:59;;;;;;;16.98;12.82;;;13.10;84.70;;;;;;4950606;29;20038;-84
2021/04/19 10:48:27;;;;;;;17.05;13.45;;;13.20;84.20;;;;;;4950583;28;20049;-84
2021/04/19 10:50:56;;;;;;;16.77;14.10;;;13.10;83.40;;;;;;4952719;28;20034;-85
2021/04/19 10:53:33;;;;;;;17.25;13.18;;;13.20;84.60;;;;;;4945663;29;20070;-84
2021/04/19 10:56:00;;;;;;;14.52;11.80;;;13.50;84.50;;;;;;4944838;29;20037;-85
2021/04/19 10:58:31;;;;;;;16.42;12.43;;;13.80;83.20;;;;;;4945300;29;20114;-85
2021/04/19 11:00:58;;;;;;;15.15;13.10;;;13.80;81.90;;;;;;4945226;28;20078;-84
2021/04/19 11:03:32;;;;;;;16.08;12.68;;;13.60;80.30;;;;;;4943574;28;20051;-84
2021/04/19 11:06:10;;;;;;;13.80;11.70;;;13.50;81.30;;;;;;4945406;28;20032;-84
2021/04/19 11:08:59;;;;;;;13.68;11.07;;;13.60;81.90;;;;;;4965763;28;20042;-84
2021/04/19 11:11:42;;;;;;;12.90;10.80;;;13.80;81.80;;;;;;4939994;29;20502;-84
2021/04/19 11:14:17;;;;;;;15.63;11.70;;;13.80;80.50;;;;;;4948139;28;20078;-85
2021/04/19 11:17:00;;;;;;;16.35;12.02;;;13.90;80.60;;;;;;4954936;28;20030;-85
2021/04/19 11:19:42;;;;;;;13.57;10.68;;;14.10;80.40;;;;;;4950027;28;20020;-85
2021/04/19 11:22:24;;;;;;;12.15;10.50;;;14.20;79.30;;;;;;4946452;28;20039;-85
2021/04/19 11:24:50;;;;;;;12.13;10.07;;;14.30;78.80;;;;;;4945114;29;20019;-85
2021/04/19 11:27:22;;;;;;;13.63;11.15;;;14.30;78.40;;;;;;4948476;28;20051;-85
2021/04/19 11:29:48;;;;;;;13.10;10.55;;;14.40;78.70;;;;;;4950587;28;20043;-84
2021/04/19 11:32:34;;;;;;;12.23;10.18;;;14.70;79.60;;;;;;4952775;29;20174;-85
2021/04/19 11:35:01;;;;;;;11.52;9.00;;;14.90;77.40;;;;;;4945780;29;20027;-85
2021/04/19 11:37:35;;;;;;;10.25;8.27;;;15.00;76.70;;;;;;4954170;29;20055;-84
2021/04/19 11:40:03;;;;;;;13.75;9.50;;;15.20;76.30;;;;;;4959395;28;20109;-84
2021/04/19 11:42:31;;;;;;;11.18;9.25;;;15.30;74.60;;;;;;4959224;28;20028;-84
2021/04/19 11:44:57;;;;;;;12.32;9.77;;;15.40;75.20;;;;;;4956318;29;20039;-84
2021/04/19 11:47:22;;;;;;;10.52;9.07;;;15.50;74.70;;;;;;4957900;29;20090;-85
2021/04/19 11:49:50;;;;;;;11.02;9.85;;;15.40;75.00;;;;;;4955539;29;20487;-84
2021/04/19 11:52:16;;;;;;;10.75;9.27;;;15.30;75.20;;;;;;4956571;29;20035;-85
2021/04/19 11:54:42;;;;;;;12.15;10.10;;;15.40;74.80;;;;;;4955919;29;20023;-85
2021/04/19 11:57:07;;;;;;;11.18;9.45;;;15.20;74.80;;;;;;4958152;28;20036;-85
2021/04/19 11:59:33;;;;;;;13.80;10.60;;;15.00;75.00;;;;;;4957005;29;20521;-84
2021/04/19 12:02:01;;;;;;;10.48;9.38;;;14.90;75.40;;;;;;4958204;29;20034;-85
2021/04/19 12:04:27;;;;;;;12.13;10.00;;;14.80;75.30;;;;;;4958285;29;20031;-85
2021/04/19 12:06:52;;;;;;;10.07;9.05;;;14.70;75.30;;;;;;4954491;29;20075;-85
2021/04/19 12:09:18;;;;;;;12.52;10.60;;;14.60;75.60;;;;;;4948377;29;20411;-84
2021/04/19 12:11:43;;;;;;;11.73;9.95;;;14.50;76.30;;;;;;4948914;29;20028;-85
2021/04/19 12:14:09;;;;;;;12.93;10.48;;;14.30;76.60;;;;;;4954441;28;20031;-85
2021/04/19 12:16:34;;;;;;;14.18;12.02;;;14.10;77.70;;;;;;4949383;29;20028;-85
2021/04/19 12:19:00;;;;;;;17.88;12.73;;;14.00;78.40;;;;;;4951416;28;20031;-87
2021/04/19 12:21:26;;;;;;;15.18;10.95;;;13.80;79.40;;;;;;4953859;29;20027;-87
2021/04/19 12:23:52;;;;;;;14.70;11.82;;;13.60;79.90;;;;;;4956006;28;20095;-87
2021/04/19 12:26:18;;;;;;;19.48;13.93;;;13.50;80.30;;;;;;4958281;29;20019;-87
2021/04/19 12:28:43;;;;;;;18.73;13.20;;;13.30;81.50;;;;;;4938537;28;20050;-87
2021/04/19 12:31:09;;;;;;;17.58;13.07;;;13.10;81.90;;;;;;4944106;29;20050;-87
2021/04/19 12:33:34;;;;;;;19.25;14.25;;;12.90;82.60;;;;;;4956206;29;20058;-87
2021/04/19 12:36:00;;;;;;;18.45;13.48;;;12.80;83.20;;;;;;4950034;29;20043;-86
2021/04/19 12:38:25;;;;;;;16.90;13.18;;;12.60;83.40;;;;;;4945336;29;20023;-85
2021/04/19 12:40:51;;;;;;;19.13;14.25;;;12.60;83.80;;;;;;4953712;28;20110;-86
2021/04/19 12:43:17;;;;;;;18.70;14.02;;;12.60;84.10;;;;;;4954808;29;20065;-86
2021/04/19 12:45:44;;;;;;;19.42;15.25;;;12.60;84.30;;;;;;4957999;29;20468;-85
2021/04/19 12:48:11;;;;;;;19.75;14.88;;;12.70;84.80;;;;;;4954041;28;20027;-85